WetterOnline ( https://www.wetteronline.de )

Wetter aktuell Katzweiler

Aktuelles Wetter: Weinbiet/Pfalz (557m)

6-stündlich | Neueste Meldungen
Ortszeit Temperatur Wetter
Mo, 19.10. 20:00 6.7° C wolkig
Mo, 19.10. 14:00 10.6° C bedeckt
Mo, 19.10. 8:00 6.1° C bedeckt
Mo, 19.10. 2:00 6.0° C bedeckt
So, 18.10. 20:00 6.2° C bedeckt
So, 18.10. 14:00 8.7° C bedeckt
So, 18.10. 8:00 2.8° C wolkenlos
So, 18.10. 2:00 4.7° C bewölkt
Ortszeit Temperatur Wetter
Mo, 19.10. 23:30 5.5° C bewölkt
Mo, 19.10. 23:20 5.5° C bewölkt
Mo, 19.10. 23:10 5.5° C bewölkt
Mo, 19.10. 23:00 5.3° C wolkig
Mo, 19.10. 22:50 5.3° C wolkig
Mo, 19.10. 22:40 5.4° C wolkig
Mo, 19.10. 22:30 5.5° C wolkig
Mo, 19.10. 22:00 5.9° C wolkig
Ortszeit Relative Feuchte Sichtweite
Mo, 19.10. 20:00 73% 45 km
Mo, 19.10. 14:00 69% 20 km
Mo, 19.10. 8:00 89% 14 km
Mo, 19.10. 2:00 85% 17 km
So, 18.10. 20:00 88% 19 km
So, 18.10. 14:00 67% 45 km
So, 18.10. 8:00 96% 11 km
So, 18.10. 2:00 92% 14 km
Ortszeit Relative Feuchte Sichtweite
Mo, 19.10. 23:30 79% 45 km
Mo, 19.10. 23:20 79% -
Mo, 19.10. 23:10 79% -
Mo, 19.10. 23:00 79% 40 km
Mo, 19.10. 22:50 79% -
Mo, 19.10. 22:40 78% -
Mo, 19.10. 22:30 75% 45 km
Mo, 19.10. 22:00 73% 55 km
Ortszeit Niederschlagsmenge Niederschlagsart
Mo, 19.10. 20:00 0.0 l/m2 in 12 Std. -
Mo, 19.10. 14:00 0.0 l/m2 in 6 Std. -
Mo, 19.10. 8:00 0.1 l/m2 in 12 Std. Regen
Mo, 19.10. 2:00 0.0 l/m2 in 6 Std. -
So, 18.10. 20:00 0.0 l/m2 in 12 Std. -
So, 18.10. 14:00 0.0 l/m2 in 6 Std. -
So, 18.10. 8:00 0.0 l/m2 in 12 Std. -
So, 18.10. 2:00 0.0 l/m2 in 6 Std. -
Ortszeit Niederschlagsmenge Niederschlagsart
Mo, 19.10. 23:30 0.0 l/m2 in 1 Std. -
Mo, 19.10. 23:20 keine Meldung -
Mo, 19.10. 23:10 keine Meldung -
Mo, 19.10. 23:00 0.0 l/m2 in 1 Std. -
Mo, 19.10. 22:50 keine Meldung -
Mo, 19.10. 22:40 keine Meldung -
Mo, 19.10. 22:30 0.0 l/m2 in 1 Std. -
Mo, 19.10. 22:00 0.0 l/m2 in 1 Std. -
Ortszeit Stärke Spitze Richtung
km/h Bft. km/h Grad Sektor
Mo, 19.10. 20:00 20 4 26 100° O
Mo, 19.10. 14:00 11 2 22 140° SO
Mo, 19.10. 8:00 7 2 22 170° S
Mo, 19.10. 2:00 7 2 22 240° SW
So, 18.10. 20:00 17 3 22 260° W
So, 18.10. 14:00 7 2 22 260° W
So, 18.10. 8:00 19 3 20 290° W
So, 18.10. 2:00 11 2 18 280° W
Ortszeit Stärke Spitze Richtung
km/h Bft. km/h Grad Sektor
Mo, 19.10. 23:30 25 4 40 120° SO
Mo, 19.10. 23:20 25 4 - 120° SO
Mo, 19.10. 23:10 29 5 - 120° SO
Mo, 19.10. 23:00 26 4 33 110° O
Mo, 19.10. 22:50 26 4 - 110° O
Mo, 19.10. 22:40 25 4 - 110° O
Mo, 19.10. 22:30 28 4 33 110° O
Mo, 19.10. 22:00 28 4 43 100° O
Ortszeit Untergrenze Bedeckung Gattung
total tief tief mittel hoch
Mo, 19.10. 20:00 9000 m 8/8 0/8 - - -
Mo, 19.10. 14:00 1260 m 8/8 8/8 - - -
Mo, 19.10. 8:00 1410 m 8/8 8/8 - - -
Mo, 19.10. 2:00 1440 m 8/8 8/8 - - -
So, 18.10. 20:00 1380 m 8/8 8/8 - - -
So, 18.10. 14:00 840 m 8/8 8/8 - - -
So, 18.10. 8:00 - 0/8 0/8 - - -
So, 18.10. 2:00 630 m 7/8 8/8 - - -
Ortszeit Bedeckungsgrad in Achtel und Wolkenuntergrenze
Mo, 19.10. 23:30 6(6600m) 7(7800m) 8(9000m)
Mo, 19.10. 23:20 6(6600m) 7(7800m) 8(9000m)
Mo, 19.10. 23:10 4(6600m) 8(9000m) 8(10500m)
Mo, 19.10. 23:00 2(7500m) 8(10500m)
Mo, 19.10. 22:50 2(7500m) 8(10500m)
Mo, 19.10. 22:40 8(10500m)
Mo, 19.10. 22:30 8(10500m)
Mo, 19.10. 22:00 4(9000m) 7(10500m)
Ortszeit Luftdruck NN (hPa) Tendenz (hPa in 3 Std.)
Mo, 19.10. 20:00 1021 - 1,1
Mo, 19.10. 14:00 1022 - 0,7
Mo, 19.10. 8:00 1024 - 0,2
Mo, 19.10. 2:00 1025 + 0,1
So, 18.10. 20:00 1024 + 0,7
So, 18.10. 14:00 1023 - 0,2
So, 18.10. 8:00 1024 + 0,5
So, 18.10. 2:00 1022 + 0,3
Ortszeit Luftdruck NN (hPa) Tendenz (hPa in 3 Std.)
Mo, 19.10. 23:30 1020 - 1,3
Mo, 19.10. 23:20 1020 keine Meldung
Mo, 19.10. 23:10 1020 keine Meldung
Mo, 19.10. 23:00 1020 - 0,9
Mo, 19.10. 22:50 1020 keine Meldung
Mo, 19.10. 22:40 1020 keine Meldung
Mo, 19.10. 22:30 1020 - 0,8
Mo, 19.10. 22:00 1020 - 0,8
Ortszeit Schneehöhe (cm)
Mo, 19.10. 20:00 0
Mo, 19.10. 14:00 0
Mo, 19.10. 8:00 0
Mo, 19.10. 2:00 0
So, 18.10. 20:00 0
So, 18.10. 14:00 0
So, 18.10. 8:00 0
So, 18.10. 2:00 0
Ortszeit Schneehöhe (cm)
Mo, 19.10. 23:30 0
Mo, 19.10. 23:20 0
Mo, 19.10. 23:10 0
Mo, 19.10. 23:00 0
Mo, 19.10. 22:50 0
Mo, 19.10. 22:40 0
Mo, 19.10. 22:30 0
Mo, 19.10. 22:00 0
Link zu dieser Seite / Seite empfehlen

Das Wetter in ...